Time;durP1;ratioP1;P1;durP2;ratioP2;P2;SDS_P1;SDS_P2;PMS_P1;PMS_P2;Temp;Humidity;BMP_temperature;BMP_pressure;BME280_temperature;BME280_humidity;BME280_pressure;Samples;Min_cycle;Max_cycle;Signal;HPM_P1;HPM_P2
2021/08/08 00:04:11;;;;;;;5.90;4.40;;;;;;;18.42;100.00;99581.05;714523;1200;113874;-76
2021/08/08 00:19:14;;;;;;;9.00;5.03;;;;;;;18.52;100.00;99579.83;714195;1200;115557;-77
2021/08/08 00:34:16;;;;;;;10.73;6.23;;;;;;;18.65;100.00;99569.20;714229;1200;114500;-75
2021/08/08 00:49:19;;;;;;;8.98;5.25;;;;;;;18.74;100.00;99540.56;714261;1200;115764;-76
2021/08/08 01:04:27;;;;;;;10.53;6.75;;;;;;;18.62;100.00;99516.47;714055;1200;115357;-76
2021/08/08 01:19:37;;;;;;;9.17;5.57;;;;;;;18.37;100.00;99509.16;713944;1200;115588;-75
2021/08/08 01:34:39;;;;;;;7.00;5.63;;;;;;;18.32;100.00;99516.08;714034;1200;114493;-75
2021/08/08 01:49:44;;;;;;;8.27;5.87;;;;;;;18.31;100.00;99483.42;713916;1206;115646;-76
2021/08/08 02:04:46;;;;;;;9.57;6.80;;;;;;;18.33;100.00;99485.87;714279;1205;114874;-75
2021/08/08 02:19:48;;;;;;;10.23;6.13;;;;;;;18.29;100.00;99458.91;713885;1177;114284;-77
2021/08/08 02:34:50;;;;;;;8.30;6.43;;;;;;;18.28;100.00;99473.23;713879;1177;114015;-80
2021/08/08 02:49:53;;;;;;;7.53;6.03;;;;;;;18.38;100.00;99462.17;714165;1176;115590;-78
2021/08/08 03:04:55;;;;;;;13.23;8.50;;;;;;;18.45;100.00;99463.80;713825;1203;115195;-77
2021/08/08 03:19:58;;;;;;;10.05;7.25;;;;;;;18.50;100.00;99457.86;714241;1178;114357;-78
2021/08/08 03:35:00;;;;;;;10.23;6.57;;;;;;;18.37;100.00;99458.72;714099;1200;116307;-78
2021/08/08 03:50:02;;;;;;;9.03;6.77;;;;;;;18.12;100.00;99562.04;714181;1200;114047;-77
2021/08/08 04:05:05;;;;;;;9.80;7.50;;;;;;;17.85;100.00;99553.98;713940;1200;114998;-80
2021/08/08 04:20:08;;;;;;;9.85;7.05;;;;;;;17.92;100.00;99530.98;714755;1200;115204;-78
2021/08/08 04:35:10;;;;;;;8.97;7.77;;;;;;;18.22;100.00;99500.58;715269;1202;114358;-80
2021/08/08 04:50:12;;;;;;;11.45;8.33;;;;;;;18.28;100.00;99528.97;715568;1200;113990;-79
2021/08/08 05:05:16;;;;;;;9.87;8.30;;;;;;;18.11;100.00;99504.67;714752;1202;115841;-80
2021/08/08 05:20:18;;;;;;;10.95;8.15;;;;;;;18.03;100.00;99473.03;715797;1205;114247;-79
2021/08/08 05:35:20;;;;;;;10.53;8.77;;;;;;;17.99;100.00;99430.16;716226;1177;114143;-79
2021/08/08 05:50:23;;;;;;;11.23;8.13;;;;;;;18.01;100.00;99425.45;715915;1199;115497;-79
2021/08/08 06:05:25;;;;;;;9.70;8.28;;;;;;;17.94;100.00;99424.65;715294;1200;114571;-79
2021/08/08 06:20:27;;;;;;;11.95;8.75;;;;;;;17.90;100.00;99412.78;715494;1202;114967;-77
2021/08/08 06:35:29;;;;;;;11.88;8.98;;;;;;;18.05;100.00;99424.02;714841;1200;115732;-80
2021/08/08 06:50:32;;;;;;;10.60;8.88;;;;;;;17.69;100.00;99488.86;716136;1200;114263;-78
2021/08/08 07:05:34;;;;;;;10.23;8.05;;;;;;;17.74;100.00;99520.10;715165;1200;115476;-80
2021/08/08 07:20:37;;;;;;;9.90;8.38;;;;;;;17.63;100.00;99566.56;716130;1200;115605;-84
2021/08/08 07:35:40;;;;;;;8.60;6.68;;;;;;;17.31;100.00;99621.90;716396;1177;114341;-84
2021/08/08 07:50:42;;;;;;;10.20;5.75;;;;;;;17.41;100.00;99648.88;715151;1199;114006;-72
2021/08/08 08:05:45;;;;;;;9.35;5.20;;;;;;;17.36;100.00;99655.79;714895;1200;115809;-73
2021/08/08 08:20:47;;;;;;;8.10;6.55;;;;;;;17.49;100.00;99668.31;714483;1200;114368;-73
2021/08/08 08:35:50;;;;;;;7.78;5.05;;;;;;;18.07;100.00;99676.75;715076;1202;114537;-73
2021/08/08 08:50:54;;;;;;;5.23;4.60;;;;;;;18.48;100.00;99690.14;719149;1199;115276;-73
2021/08/08 09:05:56;;;;;;;3.95;3.55;;;;;;;18.96;100.00;99666.07;717282;1202;114124;-74
2021/08/08 09:21:09;;;;;;;6.20;4.13;;;;;;;19.27;100.00;99717.80;714777;1200;115395;-73
2021/08/08 09:36:11;;;;;;;6.03;4.43;;;;;;;19.67;100.00;99732.87;728865;1202;114382;-72
2021/08/08 09:51:13;;;;;;;6.63;4.43;;;;;;;19.83;100.00;99767.02;719306;1200;114076;-76
2021/08/08 10:06:18;;;;;;;5.87;4.17;;;;;;;20.40;100.00;99735.28;714036;1200;115230;-79
2021/08/08 10:21:22;;;;;;;4.18;3.50;;;;;;;21.29;100.00;99787.81;714040;1200;114794;-73
2021/08/08 10:36:31;;;;;;;6.10;4.25;;;;;;;21.80;100.00;99819.81;714219;1203;113960;-72
2021/08/08 10:51:34;;;;;;;3.75;3.15;;;;;;;22.30;100.00;99827.69;714302;1176;114269;-73
2021/08/08 11:06:37;;;;;;;3.13;2.83;;;;;;;22.60;100.00;99849.13;714160;1200;114687;-75
2021/08/08 11:21:40;;;;;;;3.10;2.77;;;;;;;22.79;100.00;99861.66;714171;1200;114469;-73
2021/08/08 11:36:42;;;;;;;4.70;3.60;;;;;;;22.72;100.00;99885.81;714601;1200;114368;-73
2021/08/08 11:52:00;;;;;;;4.43;3.85;;;;;;;23.22;100.00;99906.16;714924;1200;115301;-73
2021/08/08 12:07:08;;;;;;;4.10;3.75;;;;;;;23.72;100.00;99929.88;714680;1200;114949;-73
2021/08/08 12:22:37;;;;;;;3.90;3.50;;;;;;;24.06;100.00;99943.56;716265;1176;113834;-88
2021/08/08 12:37:41;;;;;;;4.30;3.40;;;;;;;25.32;100.00;99945.86;715656;1200;115734;-82
2021/08/08 12:52:45;;;;;;;4.70;3.30;;;;;;;24.46;100.00;99938.55;716602;1200;114871;-84
2021/08/08 13:07:47;;;;;;;5.30;3.33;;;;;;;25.57;100.00;99954.38;725433;1200;113949;-86
2021/08/08 13:22:50;;;;;;;3.63;3.13;;;;;;;26.37;95.76;99967.72;724892;1199;114423;-85
2021/08/08 13:37:55;;;;;;;5.45;3.00;;;;;;;24.79;94.59;99969.28;714572;1176;113872;-84
2021/08/08 13:52:57;;;;;;;5.45;3.08;;;;;;;24.30;95.73;99973.04;714453;1200;114881;-85
2021/08/08 14:07:59;;;;;;;5.13;4.15;;;;;;;24.55;97.37;99998.78;714411;1200;114667;-86
2021/08/08 14:23:02;;;;;;;4.38;2.73;;;;;;;27.39;89.50;100007.73;714477;1200;114528;-84
2021/08/08 14:38:05;;;;;;;2.88;2.28;;;;;;;29.17;85.10;100010.28;714520;1200;114582;-84
2021/08/08 14:53:07;;;;;;;2.97;1.90;;;;;;;29.90;68.41;100002.32;714068;1177;113997;-84
2021/08/08 15:08:10;;;;;;;2.98;1.60;;;;;;;28.09;73.11;100014.30;714096;1200;114983;-84
2021/08/08 15:23:12;;;;;;;1.83;1.48;;;;;;;27.59;73.90;100021.66;713886;1200;115081;-84
2021/08/08 15:38:14;;;;;;;1.80;1.30;;;;;;;26.81;73.90;100034.22;714170;1176;114820;-84
2021/08/08 15:53:17;;;;;;;1.80;1.13;;;;;;;25.87;75.62;100033.84;714285;1200;114685;-84
2021/08/08 16:08:22;;;;;;;2.90;1.30;;;;;;;26.45;75.61;100040.95;715002;1200;114712;-81
2021/08/08 16:23:25;;;;;;;2.68;1.13;;;;;;;26.46;73.96;100059.55;718358;1182;113950;-88
2021/08/08 16:38:27;;;;;;;4.18;1.35;;;;;;;26.13;73.51;100046.92;718503;1178;114067;-86
2021/08/08 16:53:30;;;;;;;1.63;1.20;;;;;;;25.88;73.91;100067.73;715965;1202;114932;-90
2021/08/08 17:08:32;;;;;;;5.07;2.57;;;;;;;25.47;74.30;100093.00;714748;1176;113954;-85
2021/08/08 17:23:34;;;;;;;4.25;1.38;;;;;;;24.86;75.67;100096.82;714297;1200;114146;-83
2021/08/08 17:38:37;;;;;;;2.83;1.68;;;;;;;24.38;77.29;100114.73;714181;1205;114711;-84
2021/08/08 17:53:39;;;;;;;3.40;2.63;;;;;;;23.86;79.30;100130.52;714769;1176;114054;-85
2021/08/08 18:08:41;;;;;;;3.37;1.83;;;;;;;23.22;82.90;100134.38;715111;1175;113959;-86
2021/08/08 18:23:44;;;;;;;2.63;1.48;;;;;;;22.86;84.67;100151.99;715986;1200;114054;-80
2021/08/08 18:38:47;;;;;;;3.37;1.43;;;;;;;22.38;87.82;100150.74;714819;1205;113405;-80
2021/08/08 18:53:49;;;;;;;4.08;2.13;;;;;;;22.05;90.12;100164.26;715725;1203;113882;-85
2021/08/08 19:08:52;;;;;;;4.25;2.20;;;;;;;21.76;91.99;100182.47;717511;1202;114427;-86
2021/08/08 19:23:57;;;;;;;6.05;3.30;;;;;;;21.52;93.99;100194.64;718693;1180;115389;-87
2021/08/08 19:39:00;;;;;;;7.23;3.33;;;;;;;21.28;97.65;100207.62;715561;1200;116241;-82
2021/08/08 19:54:02;;;;;;;3.83;2.43;;;;;;;21.05;100.00;100229.38;714527;1176;114300;-81
2021/08/08 20:09:05;;;;;;;5.35;3.13;;;;;;;20.89;100.00;100238.60;714765;1200;115670;-81
2021/08/08 20:24:09;;;;;;;11.90;5.38;;;;;;;20.66;100.00;100255.78;714792;1200;115105;-80
2021/08/08 20:39:12;;;;;;;8.13;3.65;;;;;;;20.40;100.00;100268.03;714703;1178;115213;-81
2021/08/08 20:54:15;;;;;;;6.60;3.50;;;;;;;20.22;100.00;100276.56;714319;1199;114303;-81
2021/08/08 21:09:17;;;;;;;5.08;2.80;;;;;;;19.89;100.00;100287.07;714561;1200;115583;-81
2021/08/08 21:24:20;;;;;;;6.65;3.45;;;;;;;19.89;100.00;100293.20;714652;1199;114709;-81
2021/08/08 21:39:22;;;;;;;4.45;3.00;;;;;;;19.60;100.00;100304.88;714551;1205;114161;-81
2021/08/08 21:54:25;;;;;;;8.73;5.28;;;;;;;19.40;100.00;100310.86;715388;1200;115197;-80
2021/08/08 22:09:27;;;;;;;10.23;5.10;;;;;;;19.01;100.00;100333.42;714626;1200;115098;-80
2021/08/08 22:24:30;;;;;;;9.55;5.00;;;;;;;18.88;100.00;100343.89;714052;1202;114326;-80
2021/08/08 22:39:32;;;;;;;6.33;3.48;;;;;;;18.59;100.00;100330.48;713989;1200;115252;-82
2021/08/08 22:54:34;;;;;;;4.40;2.80;;;;;;;18.38;100.00;100330.44;714179;1177;114117;-80
2021/08/08 23:09:37;;;;;;;6.13;3.80;;;;;;;18.25;100.00;100323.13;714159;1200;114905;-82
2021/08/08 23:24:40;;;;;;;7.85;3.88;;;;;;;17.94;100.00;100329.46;714097;1200;115187;-80
2021/08/08 23:39:42;;;;;;;5.33;3.40;;;;;;;17.70;100.00;100320.72;714248;1177;114514;-79
2021/08/08 23:54:44;;;;;;;7.05;3.78;;;;;;;17.78;100.00;100310.02;714144;1200;114110;-80
